sensor_id;sensor_type;location;lat;lon;timestamp;P1;durP1;ratioP1;P2;durP2;ratioP2
39896;SDS011;25567;48.276;14.242;2022-09-20T00:01:22;4.72;;;2.85;;
39896;SDS011;25567;48.276;14.242;2022-09-20T00:03:51;7.30;;;3.17;;
39896;SDS011;25567;48.276;14.242;2022-09-20T00:06:21;8.57;;;3.08;;
39896;SDS011;25567;48.276;14.242;2022-09-20T00:08:49;10.30;;;3.40;;
39896;SDS011;25567;48.276;14.242;2022-09-20T00:11:18;7.85;;;3.35;;
39896;SDS011;25567;48.276;14.242;2022-09-20T00:13:48;5.90;;;3.15;;
39896;SDS011;25567;48.276;14.242;2022-09-20T00:16:21;8.25;;;3.80;;
39896;SDS011;25567;48.276;14.242;2022-09-20T00:18:51;8.25;;;3.80;;
39896;SDS011;25567;48.276;14.242;2022-09-20T00:21:20;11.75;;;3.83;;
39896;SDS011;25567;48.276;14.242;2022-09-20T00:23:50;8.20;;;3.17;;
39896;SDS011;25567;48.276;14.242;2022-09-20T00:26:17;12.20;;;3.47;;
39896;SDS011;25567;48.276;14.242;2022-09-20T00:28:44;7.38;;;3.25;;
39896;SDS011;25567;48.276;14.242;2022-09-20T00:31:12;8.57;;;3.45;;
39896;SDS011;25567;48.276;14.242;2022-09-20T00:33:40;7.28;;;3.08;;
39896;SDS011;25567;48.276;14.242;2022-09-20T00:36:22;9.07;;;3.15;;
39896;SDS011;25567;48.276;14.242;2022-09-20T00:38:53;7.63;;;2.70;;
39896;SDS011;25567;48.276;14.242;2022-09-20T00:41:21;6.72;;;3.00;;
39896;SDS011;25567;48.276;14.242;2022-09-20T00:43:47;5.88;;;2.95;;
39896;SDS011;25567;48.276;14.242;2022-09-20T00:46:19;5.70;;;3.08;;
39896;SDS011;25567;48.276;14.242;2022-09-20T00:49:02;8.20;;;2.80;;
39896;SDS011;25567;48.276;14.242;2022-09-20T00:51:36;6.75;;;2.70;;
39896;SDS011;25567;48.276;14.242;2022-09-20T00:54:06;11.60;;;2.88;;
39896;SDS011;25567;48.276;14.242;2022-09-20T00:56:36;8.05;;;2.53;;
39896;SDS011;25567;48.276;14.242;2022-09-20T01:02:00;11.50;;;3.25;;
39896;SDS011;25567;48.276;14.242;2022-09-20T01:07:00;6.43;;;2.67;;
39896;SDS011;25567;48.276;14.242;2022-09-20T01:09:30;6.78;;;3.00;;
39896;SDS011;25567;48.276;14.242;2022-09-20T01:12:01;7.35;;;3.20;;
39896;SDS011;25567;48.276;14.242;2022-09-20T01:14:31;7.47;;;3.13;;
39896;SDS011;25567;48.276;14.242;2022-09-20T01:17:01;11.57;;;3.88;;
39896;SDS011;25567;48.276;14.242;2022-09-20T01:19:37;7.47;;;3.10;;
39896;SDS011;25567;48.276;14.242;2022-09-20T01:22:23;15.40;;;3.63;;
39896;SDS011;25567;48.276;14.242;2022-09-20T01:27:44;15.32;;;3.97;;
39896;SDS011;25567;48.276;14.242;2022-09-20T01:30:13;8.80;;;3.33;;
39896;SDS011;25567;48.276;14.242;2022-09-20T01:35:42;10.13;;;3.45;;
39896;SDS011;25567;48.276;14.242;2022-09-20T01:38:19;11.00;;;3.55;;
39896;SDS011;25567;48.276;14.242;2022-09-20T01:46:17;8.57;;;3.13;;
39896;SDS011;25567;48.276;14.242;2022-09-20T01:49:07;6.72;;;3.03;;
39896;SDS011;25567;48.276;14.242;2022-09-20T01:51:46;9.13;;;3.20;;
39896;SDS011;25567;48.276;14.242;2022-09-20T01:54:45;8.13;;;3.38;;
39896;SDS011;25567;48.276;14.242;2022-09-20T02:05:34;5.40;;;3.25;;
39896;SDS011;25567;48.276;14.242;2022-09-20T02:11:10;9.50;;;3.10;;
39896;SDS011;25567;48.276;14.242;2022-09-20T02:13:46;7.30;;;2.78;;
39896;SDS011;25567;48.276;14.242;2022-09-20T02:16:47;7.50;;;3.15;;
39896;SDS011;25567;48.276;14.242;2022-09-20T02:36:22;6.95;;;2.50;;
39896;SDS011;25567;48.276;14.242;2022-09-20T02:38:56;12.88;;;2.80;;
39896;SDS011;25567;48.276;14.242;2022-09-20T02:41:50;11.68;;;3.00;;
39896;SDS011;25567;48.276;14.242;2022-09-20T02:47:15;7.88;;;2.70;;
39896;SDS011;25567;48.276;14.242;2022-09-20T02:58:48;7.57;;;3.00;;
39896;SDS011;25567;48.276;14.242;2022-09-20T03:29:02;8.13;;;3.42;;
39896;SDS011;25567;48.276;14.242;2022-09-20T03:31:47;9.43;;;4.28;;
39896;SDS011;25567;48.276;14.242;2022-09-20T03:34:37;9.50;;;4.03;;
39896;SDS011;25567;48.276;14.242;2022-09-20T03:40:07;6.78;;;3.80;;
39896;SDS011;25567;48.276;14.242;2022-09-20T03:42:50;11.13;;;3.90;;
39896;SDS011;25567;48.276;14.242;2022-09-20T03:53:38;7.15;;;3.65;;
39896;SDS011;25567;48.276;14.242;2022-09-20T04:08:06;8.38;;;3.40;;
39896;SDS011;25567;48.276;14.242;2022-09-20T04:13:30;5.05;;;2.67;;
39896;SDS011;25567;48.276;14.242;2022-09-20T04:19:03;9.18;;;3.30;;
39896;SDS011;25567;48.276;14.242;2022-09-20T04:21:44;6.15;;;2.70;;
39896;SDS011;25567;48.276;14.242;2022-09-20T04:27:10;9.60;;;2.45;;
39896;SDS011;25567;48.276;14.242;2022-09-20T04:29:43;6.15;;;2.72;;
39896;SDS011;25567;48.276;14.242;2022-09-20T04:32:20;6.07;;;2.40;;
39896;SDS011;25567;48.276;14.242;2022-09-20T04:48:33;10.65;;;2.60;;
39896;SDS011;25567;48.276;14.242;2022-09-20T04:57:16;11.00;;;2.65;;
39896;SDS011;25567;48.276;14.242;2022-09-20T04:59:55;7.50;;;2.20;;
39896;SDS011;25567;48.276;14.242;2022-09-20T05:05:43;8.38;;;2.45;;
39896;SDS011;25567;48.276;14.242;2022-09-20T05:08:28;6.25;;;2.33;;
39896;SDS011;25567;48.276;14.242;2022-09-20T05:22:38;6.65;;;2.75;;
39896;SDS011;25567;48.276;14.242;2022-09-20T05:28:05;7.15;;;2.97;;
39896;SDS011;25567;48.276;14.242;2022-09-20T05:30:49;10.35;;;3.05;;
39896;SDS011;25567;48.276;14.242;2022-09-20T05:36:07;4.97;;;2.80;;
39896;SDS011;25567;48.276;14.242;2022-09-20T05:47:08;11.40;;;3.20;;
39896;SDS011;25567;48.276;14.242;2022-09-20T06:00:42;9.95;;;2.95;;
39896;SDS011;25567;48.276;14.242;2022-09-20T06:03:17;5.85;;;3.13;;
39896;SDS011;25567;48.276;14.242;2022-09-20T06:06:17;11.43;;;3.78;;
39896;SDS011;25567;48.276;14.242;2022-09-20T06:14:31;9.90;;;4.13;;
39896;SDS011;25567;48.276;14.242;2022-09-20T06:22:35;10.15;;;3.55;;
39896;SDS011;25567;48.276;14.242;2022-09-20T06:27:34;13.45;;;4.10;;
39896;SDS011;25567;48.276;14.242;2022-09-20T06:30:06;13.63;;;4.78;;
39896;SDS011;25567;48.276;14.242;2022-09-20T06:35:26;9.60;;;3.65;;
39896;SDS011;25567;48.276;14.242;2022-09-20T06:38:02;8.60;;;4.47;;
39896;SDS011;25567;48.276;14.242;2022-09-20T06:41:01;14.73;;;4.80;;
39896;SDS011;25567;48.276;14.242;2022-09-20T06:43:44;10.40;;;4.03;;
39896;SDS011;25567;48.276;14.242;2022-09-20T06:46:13;9.73;;;4.38;;
39896;SDS011;25567;48.276;14.242;2022-09-20T06:48:41;8.95;;;3.42;;
39896;SDS011;25567;48.276;14.242;2022-09-20T06:51:08;6.47;;;3.60;;
39896;SDS011;25567;48.276;14.242;2022-09-20T06:53:36;10.25;;;4.10;;
39896;SDS011;25567;48.276;14.242;2022-09-20T06:56:07;7.65;;;3.70;;
39896;SDS011;25567;48.276;14.242;2022-09-20T06:58:38;4.80;;;3.33;;
39896;SDS011;25567;48.276;14.242;2022-09-20T07:01:05;12.65;;;3.03;;
39896;SDS011;25567;48.276;14.242;2022-09-20T07:03:31;5.82;;;3.08;;
39896;SDS011;25567;48.276;14.242;2022-09-20T07:05:58;4.75;;;3.13;;
39896;SDS011;25567;48.276;14.242;2022-09-20T07:08:26;9.52;;;3.47;;
39896;SDS011;25567;48.276;14.242;2022-09-20T07:10:52;6.57;;;3.35;;
39896;SDS011;25567;48.276;14.242;2022-09-20T07:13:19;10.43;;;3.78;;
39896;SDS011;25567;48.276;14.242;2022-09-20T07:15:46;8.00;;;3.55;;
39896;SDS011;25567;48.276;14.242;2022-09-20T07:18:13;13.57;;;3.97;;
39896;SDS011;25567;48.276;14.242;2022-09-20T07:20:40;7.80;;;3.47;;
39896;SDS011;25567;48.276;14.242;2022-09-20T07:23:06;5.63;;;3.45;;
39896;SDS011;25567;48.276;14.242;2022-09-20T07:25:34;14.43;;;3.38;;
39896;SDS011;25567;48.276;14.242;2022-09-20T07:28:01;7.22;;;3.85;;
39896;SDS011;25567;48.276;14.242;2022-09-20T07:30:28;10.88;;;4.47;;
39896;SDS011;25567;48.276;14.242;2022-09-20T07:32:55;15.88;;;4.25;;
39896;SDS011;25567;48.276;14.242;2022-09-20T07:35:21;13.18;;;3.83;;
39896;SDS011;25567;48.276;14.242;2022-09-20T07:37:50;8.77;;;3.88;;
39896;SDS011;25567;48.276;14.242;2022-09-20T07:40:21;8.75;;;4.05;;
39896;SDS011;25567;48.276;14.242;2022-09-20T07:42:48;6.25;;;3.67;;
39896;SDS011;25567;48.276;14.242;2022-09-20T07:45:21;9.05;;;3.42;;
39896;SDS011;25567;48.276;14.242;2022-09-20T07:47:49;5.70;;;3.25;;
39896;SDS011;25567;48.276;14.242;2022-09-20T07:50:15;9.65;;;3.63;;
39896;SDS011;25567;48.276;14.242;2022-09-20T07:52:42;9.95;;;3.50;;
39896;SDS011;25567;48.276;14.242;2022-09-20T07:55:09;5.82;;;2.72;;
39896;SDS011;25567;48.276;14.242;2022-09-20T07:57:36;5.45;;;1.88;;
39896;SDS011;25567;48.276;14.242;2022-09-20T08:00:04;4.55;;;1.35;;
39896;SDS011;25567;48.276;14.242;2022-09-20T08:02:33;4.55;;;1.00;;
39896;SDS011;25567;48.276;14.242;2022-09-20T08:04:59;4.28;;;1.20;;
39896;SDS011;25567;48.276;14.242;2022-09-20T08:07:27;3.17;;;1.50;;
39896;SDS011;25567;48.276;14.242;2022-09-20T08:09:54;4.75;;;1.63;;
39896;SDS011;25567;48.276;14.242;2022-09-20T08:12:21;3.35;;;1.63;;
39896;SDS011;25567;48.276;14.242;2022-09-20T08:15:08;5.85;;;1.17;;
39896;SDS011;25567;48.276;14.242;2022-09-20T08:17:37;8.18;;;1.45;;
39896;SDS011;25567;48.276;14.242;2022-09-20T08:20:05;8.23;;;1.80;;
39896;SDS011;25567;48.276;14.242;2022-09-20T08:22:32;2.58;;;1.17;;
39896;SDS011;25567;48.276;14.242;2022-09-20T08:25:00;3.60;;;1.10;;
39896;SDS011;25567;48.276;14.242;2022-09-20T08:27:26;2.47;;;1.10;;
39896;SDS011;25567;48.276;14.242;2022-09-20T08:29:53;3.00;;;1.65;;
39896;SDS011;25567;48.276;14.242;2022-09-20T08:32:22;3.97;;;1.83;;
39896;SDS011;25567;48.276;14.242;2022-09-20T08:34:49;4.97;;;1.63;;
39896;SDS011;25567;48.276;14.242;2022-09-20T08:37:15;3.47;;;1.70;;
39896;SDS011;25567;48.276;14.242;2022-09-20T08:39:42;3.80;;;1.67;;
39896;SDS011;25567;48.276;14.242;2022-09-20T08:45:00;5.85;;;2.15;;
39896;SDS011;25567;48.276;14.242;2022-09-20T08:47:32;5.20;;;1.95;;
39896;SDS011;25567;48.276;14.242;2022-09-20T08:50:03;4.18;;;1.73;;
39896;SDS011;25567;48.276;14.242;2022-09-20T08:52:36;4.00;;;1.50;;
39896;SDS011;25567;48.276;14.242;2022-09-20T08:55:14;4.07;;;1.48;;
39896;SDS011;25567;48.276;14.242;2022-09-20T08:57:43;4.30;;;1.75;;
39896;SDS011;25567;48.276;14.242;2022-09-20T09:00:16;3.10;;;1.85;;
39896;SDS011;25567;48.276;14.242;2022-09-20T09:02:45;4.13;;;1.73;;
39896;SDS011;25567;48.276;14.242;2022-09-20T09:07:57;4.07;;;1.40;;
39896;SDS011;25567;48.276;14.242;2022-09-20T09:10:28;2.08;;;1.25;;
39896;SDS011;25567;48.276;14.242;2022-09-20T09:12:59;2.22;;;1.50;;
39896;SDS011;25567;48.276;14.242;2022-09-20T09:15:31;4.68;;;1.55;;
39896;SDS011;25567;48.276;14.242;2022-09-20T09:18:00;2.17;;;1.23;;
39896;SDS011;25567;48.276;14.242;2022-09-20T09:20:27;2.22;;;1.10;;
39896;SDS011;25567;48.276;14.242;2022-09-20T09:22:59;2.88;;;1.15;;
39896;SDS011;25567;48.276;14.242;2022-09-20T09:25:27;5.07;;;1.30;;
39896;SDS011;25567;48.276;14.242;2022-09-20T09:28:12;3.72;;;1.08;;
39896;SDS011;25567;48.276;14.242;2022-09-20T09:30:42;5.45;;;1.05;;
39896;SDS011;25567;48.276;14.242;2022-09-20T09:36:06;2.70;;;1.50;;
39896;SDS011;25567;48.276;14.242;2022-09-20T09:38:42;5.10;;;1.40;;
39896;SDS011;25567;48.276;14.242;2022-09-20T09:43:59;4.95;;;1.95;;
39896;SDS011;25567;48.276;14.242;2022-09-20T09:46:31;3.60;;;1.15;;
39896;SDS011;25567;48.276;14.242;2022-09-20T09:49:04;6.93;;;1.23;;
39896;SDS011;25567;48.276;14.242;2022-09-20T09:51:37;6.88;;;1.30;;
39896;SDS011;25567;48.276;14.242;2022-09-20T09:54:04;1.65;;;1.17;;
39896;SDS011;25567;48.276;14.242;2022-09-20T09:56:44;7.72;;;1.20;;
39896;SDS011;25567;48.276;14.242;2022-09-20T09:59:27;5.05;;;1.27;;
39896;SDS011;25567;48.276;14.242;2022-09-20T10:04:45;3.17;;;1.30;;
39896;SDS011;25567;48.276;14.242;2022-09-20T10:18:07;4.30;;;1.15;;
39896;SDS011;25567;48.276;14.242;2022-09-20T10:21:05;3.72;;;1.20;;
39896;SDS011;25567;48.276;14.242;2022-09-20T10:23:55;2.08;;;0.95;;
39896;SDS011;25567;48.276;14.242;2022-09-20T10:40:41;0.57;;;0.20;;
39896;SDS011;25567;48.276;14.242;2022-09-20T10:43:44;2.05;;;0.47;;
39896;SDS011;25567;48.276;14.242;2022-09-20T10:46:36;1.33;;;0.50;;
39896;SDS011;25567;48.276;14.242;2022-09-20T11:00:07;2.47;;;0.50;;
39896;SDS011;25567;48.276;14.242;2022-09-20T11:05:42;1.40;;;0.60;;
39896;SDS011;25567;48.276;14.242;2022-09-20T11:08:23;2.60;;;0.52;;
39896;SDS011;25567;48.276;14.242;2022-09-20T11:10:57;3.92;;;0.80;;
39896;SDS011;25567;48.276;14.242;2022-09-20T11:13:44;2.95;;;0.70;;
39896;SDS011;25567;48.276;14.242;2022-09-20T11:16:18;1.60;;;0.75;;
39896;SDS011;25567;48.276;14.242;2022-09-20T11:21:20;1.67;;;0.80;;
39896;SDS011;25567;48.276;14.242;2022-09-20T11:26:48;6.85;;;0.95;;
39896;SDS011;25567;48.276;14.242;2022-09-20T11:32:08;4.05;;;0.75;;
39896;SDS011;25567;48.276;14.242;2022-09-20T11:34:51;2.22;;;0.68;;
39896;SDS011;25567;48.276;14.242;2022-09-20T11:37:22;6.18;;;1.00;;
39896;SDS011;25567;48.276;14.242;2022-09-20T11:40:00;3.55;;;0.70;;
39896;SDS011;25567;48.276;14.242;2022-09-20T11:42:32;3.80;;;0.90;;
39896;SDS011;25567;48.276;14.242;2022-09-20T11:45:02;3.13;;;0.90;;
39896;SDS011;25567;48.276;14.242;2022-09-20T11:47:30;1.38;;;0.77;;
39896;SDS011;25567;48.276;14.242;2022-09-20T12:01:27;3.90;;;0.90;;
39896;SDS011;25567;48.276;14.242;2022-09-20T12:03:58;15.50;;;1.10;;
39896;SDS011;25567;48.276;14.242;2022-09-20T12:06:58;4.60;;;1.10;;
39896;SDS011;25567;48.276;14.242;2022-09-20T12:09:37;2.10;;;0.80;;
39896;SDS011;25567;48.276;14.242;2022-09-20T12:14:58;3.92;;;0.70;;
39896;SDS011;25567;48.276;14.242;2022-09-20T12:25:59;1.52;;;0.50;;
39896;SDS011;25567;48.276;14.242;2022-09-20T12:28:32;5.82;;;0.88;;
39896;SDS011;25567;48.276;14.242;2022-09-20T12:33:57;4.65;;;0.80;;
39896;SDS011;25567;48.276;14.242;2022-09-20T12:36:29;3.00;;;0.75;;
39896;SDS011;25567;48.276;14.242;2022-09-20T12:42:01;0.90;;;0.43;;
39896;SDS011;25567;48.276;14.242;2022-09-20T12:55:06;2.05;;;0.35;;
39896;SDS011;25567;48.276;14.242;2022-09-20T12:57:36;1.95;;;0.50;;
39896;SDS011;25567;48.276;14.242;2022-09-20T13:00:05;1.52;;;0.52;;
39896;SDS011;25567;48.276;14.242;2022-09-20T13:02:57;2.83;;;0.93;;
39896;SDS011;25567;48.276;14.242;2022-09-20T13:08:15;1.30;;;0.32;;
39896;SDS011;25567;48.276;14.242;2022-09-20T13:10:44;2.75;;;0.38;;
39896;SDS011;25567;48.276;14.242;2022-09-20T13:13:23;2.05;;;0.38;;
39896;SDS011;25567;48.276;14.242;2022-09-20T13:15:57;1.83;;;0.60;;
39896;SDS011;25567;48.276;14.242;2022-09-20T13:18:26;2.17;;;0.73;;
39896;SDS011;25567;48.276;14.242;2022-09-20T13:20:54;1.50;;;0.50;;
39896;SDS011;25567;48.276;14.242;2022-09-20T13:23:24;4.07;;;0.63;;
39896;SDS011;25567;48.276;14.242;2022-09-20T13:25:54;1.73;;;0.52;;
39896;SDS011;25567;48.276;14.242;2022-09-20T13:28:25;2.50;;;0.70;;
39896;SDS011;25567;48.276;14.242;2022-09-20T13:33:49;3.30;;;0.60;;
39896;SDS011;25567;48.276;14.242;2022-09-20T13:36:23;5.85;;;0.70;;
39896;SDS011;25567;48.276;14.242;2022-09-20T13:38:52;2.00;;;0.68;;
39896;SDS011;25567;48.276;14.242;2022-09-20T13:41:21;1.83;;;0.52;;
39896;SDS011;25567;48.276;14.242;2022-09-20T13:43:49;4.90;;;0.45;;
39896;SDS011;25567;48.276;14.242;2022-09-20T13:46:28;2.58;;;0.40;;
39896;SDS011;25567;48.276;14.242;2022-09-20T13:51:46;2.20;;;0.47;;
39896;SDS011;25567;48.276;14.242;2022-09-20T13:54:18;4.50;;;0.40;;
39896;SDS011;25567;48.276;14.242;2022-09-20T13:56:54;4.35;;;0.60;;
39896;SDS011;25567;48.276;14.242;2022-09-20T13:59:26;1.90;;;0.50;;
39896;SDS011;25567;48.276;14.242;2022-09-20T14:01:59;3.08;;;0.47;;
39896;SDS011;25567;48.276;14.242;2022-09-20T14:04:27;3.40;;;0.70;;
39896;SDS011;25567;48.276;14.242;2022-09-20T14:06:55;4.72;;;0.80;;
39896;SDS011;25567;48.276;14.242;2022-09-20T14:09:26;5.40;;;0.70;;
39896;SDS011;25567;48.276;14.242;2022-09-20T14:11:56;3.72;;;0.70;;
39896;SDS011;25567;48.276;14.242;2022-09-20T14:14:24;3.22;;;0.65;;
39896;SDS011;25567;48.276;14.242;2022-09-20T14:16:52;1.88;;;0.50;;
39896;SDS011;25567;48.276;14.242;2022-09-20T14:19:22;4.65;;;0.50;;
39896;SDS011;25567;48.276;14.242;2022-09-20T14:21:54;3.40;;;0.60;;
39896;SDS011;25567;48.276;14.242;2022-09-20T14:24:23;1.70;;;0.70;;
39896;SDS011;25567;48.276;14.242;2022-09-20T14:29:45;1.00;;;0.40;;
39896;SDS011;25567;48.276;14.242;2022-09-20T14:34:58;2.55;;;0.50;;
39896;SDS011;25567;48.276;14.242;2022-09-20T14:37:32;0.32;;;0.25;;
39896;SDS011;25567;48.276;14.242;2022-09-20T14:40:02;3.05;;;0.30;;
39896;SDS011;25567;48.276;14.242;2022-09-20T14:42:42;1.55;;;0.30;;
39896;SDS011;25567;48.276;14.242;2022-09-20T14:45:20;1.05;;;0.40;;
39896;SDS011;25567;48.276;14.242;2022-09-20T14:47:51;1.00;;;0.40;;
39896;SDS011;25567;48.276;14.242;2022-09-20T14:50:25;1.77;;;0.40;;
39896;SDS011;25567;48.276;14.242;2022-09-20T14:53:03;1.35;;;0.40;;
39896;SDS011;25567;48.276;14.242;2022-09-20T14:55:30;4.70;;;0.30;;
39896;SDS011;25567;48.276;14.242;2022-09-20T14:58:05;4.97;;;0.50;;
39896;SDS011;25567;48.276;14.242;2022-09-20T15:03:23;1.25;;;0.40;;
39896;SDS011;25567;48.276;14.242;2022-09-20T15:05:52;1.23;;;0.40;;
39896;SDS011;25567;48.276;14.242;2022-09-20T15:08:19;2.10;;;0.40;;
39896;SDS011;25567;48.276;14.242;2022-09-20T15:10:54;7.44;;;0.70;;
39896;SDS011;25567;48.276;14.242;2022-09-20T15:13:21;7.00;;;0.70;;
39896;SDS011;25567;48.276;14.242;2022-09-20T15:15:50;1.25;;;0.40;;
39896;SDS011;25567;48.276;14.242;2022-09-20T15:18:20;1.55;;;0.38;;
39896;SDS011;25567;48.276;14.242;2022-09-20T15:20:50;2.08;;;0.47;;
39896;SDS011;25567;48.276;14.242;2022-09-20T15:23:18;1.63;;;0.40;;
39896;SDS011;25567;48.276;14.242;2022-09-20T15:25:48;3.90;;;0.30;;
39896;SDS011;25567;48.276;14.242;2022-09-20T15:28:16;3.45;;;0.28;;
39896;SDS011;25567;48.276;14.242;2022-09-20T15:30:44;2.60;;;0.40;;
39896;SDS011;25567;48.276;14.242;2022-09-20T15:33:12;1.73;;;0.60;;
39896;SDS011;25567;48.276;14.242;2022-09-20T15:35:40;1.77;;;0.50;;
39896;SDS011;25567;48.276;14.242;2022-09-20T15:38:07;2.05;;;0.77;;
39896;SDS011;25567;48.276;14.242;2022-09-20T15:40:37;1.33;;;0.60;;
39896;SDS011;25567;48.276;14.242;2022-09-20T15:43:10;3.42;;;0.70;;
39896;SDS011;25567;48.276;14.242;2022-09-20T15:45:49;8.45;;;1.35;;
39896;SDS011;25567;48.276;14.242;2022-09-20T15:48:18;1.67;;;0.70;;
39896;SDS011;25567;48.276;14.242;2022-09-20T15:50:57;1.92;;;0.65;;
39896;SDS011;25567;48.276;14.242;2022-09-20T15:53:28;3.83;;;0.60;;
39896;SDS011;25567;48.276;14.242;2022-09-20T15:55:58;1.95;;;1.00;;
39896;SDS011;25567;48.276;14.242;2022-09-20T15:58:28;33.60;;;15.95;;
39896;SDS011;25567;48.276;14.242;2022-09-20T16:01:02;4.28;;;3.25;;
39896;SDS011;25567;48.276;14.242;2022-09-20T16:03:30;15.85;;;12.98;;
39896;SDS011;25567;48.276;14.242;2022-09-20T16:05:58;4.85;;;3.60;;
39896;SDS011;25567;48.276;14.242;2022-09-20T16:08:30;3.53;;;1.88;;
39896;SDS011;25567;48.276;14.242;2022-09-20T16:10:58;2.42;;;1.13;;
39896;SDS011;25567;48.276;14.242;2022-09-20T16:13:26;3.10;;;0.85;;
39896;SDS011;25567;48.276;14.242;2022-09-20T16:15:54;4.88;;;1.02;;
39896;SDS011;25567;48.276;14.242;2022-09-20T16:18:23;3.37;;;0.47;;
39896;SDS011;25567;48.276;14.242;2022-09-20T16:21:06;1.77;;;0.60;;
39896;SDS011;25567;48.276;14.242;2022-09-20T16:23:34;2.85;;;2.45;;
39896;SDS011;25567;48.276;14.242;2022-09-20T16:26:04;1.10;;;1.00;;
39896;SDS011;25567;48.276;14.242;2022-09-20T16:28:32;0.82;;;0.30;;
39896;SDS011;25567;48.276;14.242;2022-09-20T16:30:58;0.75;;;0.45;;
39896;SDS011;25567;48.276;14.242;2022-09-20T16:33:25;3.05;;;0.60;;
39896;SDS011;25567;48.276;14.242;2022-09-20T16:35:52;2.45;;;1.55;;
39896;SDS011;25567;48.276;14.242;2022-09-20T16:38:19;2.55;;;0.80;;
39896;SDS011;25567;48.276;14.242;2022-09-20T16:40:48;0.90;;;0.45;;
39896;SDS011;25567;48.276;14.242;2022-09-20T16:43:16;0.77;;;0.20;;
39896;SDS011;25567;48.276;14.242;2022-09-20T16:45:56;3.30;;;1.20;;
39896;SDS011;25567;48.276;14.242;2022-09-20T16:48:25;6.70;;;1.42;;
39896;SDS011;25567;48.276;14.242;2022-09-20T16:50:56;7.07;;;1.55;;
39896;SDS011;25567;48.276;14.242;2022-09-20T16:53:25;4.68;;;1.50;;
39896;SDS011;25567;48.276;14.242;2022-09-20T16:55:52;2.67;;;0.70;;
39896;SDS011;25567;48.276;14.242;2022-09-20T16:58:28;3.28;;;0.65;;
39896;SDS011;25567;48.276;14.242;2022-09-20T17:01:03;1.30;;;0.50;;
39896;SDS011;25567;48.276;14.242;2022-09-20T17:03:31;0.87;;;0.30;;
39896;SDS011;25567;48.276;14.242;2022-09-20T17:06:01;24.55;;;12.55;;
39896;SDS011;25567;48.276;14.242;2022-09-20T17:08:31;51.05;;;21.15;;
39896;SDS011;25567;48.276;14.242;2022-09-20T17:11:07;15.88;;;6.60;;
39896;SDS011;25567;48.276;14.242;2022-09-20T17:13:37;14.88;;;6.68;;
39896;SDS011;25567;48.276;14.242;2022-09-20T17:16:10;9.90;;;4.53;;
39896;SDS011;25567;48.276;14.242;2022-09-20T17:18:38;21.85;;;9.52;;
39896;SDS011;25567;48.276;14.242;2022-09-20T17:21:10;16.35;;;7.85;;
39896;SDS011;25567;48.276;14.242;2022-09-20T17:23:41;23.80;;;11.80;;
39896;SDS011;25567;48.276;14.242;2022-09-20T17:26:17;6.20;;;3.00;;
39896;SDS011;25567;48.276;14.242;2022-09-20T17:28:48;4.25;;;2.30;;
39896;SDS011;25567;48.276;14.242;2022-09-20T17:31:19;4.20;;;3.42;;
39896;SDS011;25567;48.276;14.242;2022-09-20T17:33:48;2.15;;;0.90;;
39896;SDS011;25567;48.276;14.242;2022-09-20T17:36:17;2.22;;;0.65;;
39896;SDS011;25567;48.276;14.242;2022-09-20T17:38:45;1.15;;;0.57;;
39896;SDS011;25567;48.276;14.242;2022-09-20T17:41:14;0.70;;;0.30;;
39896;SDS011;25567;48.276;14.242;2022-09-20T17:43:42;1.30;;;0.50;;
39896;SDS011;25567;48.276;14.242;2022-09-20T17:46:11;0.73;;;0.52;;
39896;SDS011;25567;48.276;14.242;2022-09-20T17:48:38;0.95;;;0.70;;
39896;SDS011;25567;48.276;14.242;2022-09-20T17:51:06;2.55;;;0.85;;
39896;SDS011;25567;48.276;14.242;2022-09-20T17:53:37;2.90;;;0.77;;
39896;SDS011;25567;48.276;14.242;2022-09-20T17:56:04;2.85;;;0.60;;
39896;SDS011;25567;48.276;14.242;2022-09-20T17:58:32;1.85;;;0.70;;
39896;SDS011;25567;48.276;14.242;2022-09-20T18:01:01;4.40;;;0.73;;
39896;SDS011;25567;48.276;14.242;2022-09-20T18:03:38;6.45;;;0.68;;
39896;SDS011;25567;48.276;14.242;2022-09-20T18:06:10;0.70;;;0.63;;
39896;SDS011;25567;48.276;14.242;2022-09-20T18:08:37;1.30;;;0.60;;
39896;SDS011;25567;48.276;14.242;2022-09-20T18:11:04;0.85;;;0.50;;
39896;SDS011;25567;48.276;14.242;2022-09-20T18:13:31;1.20;;;0.70;;
39896;SDS011;25567;48.276;14.242;2022-09-20T18:15:58;2.13;;;0.80;;
39896;SDS011;25567;48.276;14.242;2022-09-20T18:18:24;2.70;;;0.70;;
39896;SDS011;25567;48.276;14.242;2022-09-20T18:20:51;3.13;;;1.10;;
39896;SDS011;25567;48.276;14.242;2022-09-20T18:23:18;1.40;;;0.80;;
39896;SDS011;25567;48.276;14.242;2022-09-20T18:25:44;1.67;;;0.93;;
39896;SDS011;25567;48.276;14.242;2022-09-20T18:28:26;2.38;;;1.48;;
39896;SDS011;25567;48.276;14.242;2022-09-20T18:31:01;4.95;;;1.85;;
39896;SDS011;25567;48.276;14.242;2022-09-20T18:33:29;2.20;;;1.10;;
39896;SDS011;25567;48.276;14.242;2022-09-20T18:35:59;2.30;;;1.23;;
39896;SDS011;25567;48.276;14.242;2022-09-20T18:38:28;3.75;;;1.15;;
39896;SDS011;25567;48.276;14.242;2022-09-20T18:40:56;1.88;;;1.20;;
39896;SDS011;25567;48.276;14.242;2022-09-20T18:43:26;4.40;;;2.08;;
39896;SDS011;25567;48.276;14.242;2022-09-20T18:45:55;9.90;;;3.13;;
39896;SDS011;25567;48.276;14.242;2022-09-20T18:48:23;5.82;;;2.15;;
39896;SDS011;25567;48.276;14.242;2022-09-20T18:50:56;4.95;;;2.03;;
39896;SDS011;25567;48.276;14.242;2022-09-20T18:53:31;5.55;;;1.58;;
39896;SDS011;25567;48.276;14.242;2022-09-20T18:56:05;8.40;;;3.30;;
39896;SDS011;25567;48.276;14.242;2022-09-20T18:58:31;5.60;;;2.78;;
39896;SDS011;25567;48.276;14.242;2022-09-20T19:01:04;6.30;;;2.85;;
39896;SDS011;25567;48.276;14.242;2022-09-20T19:06:32;5.07;;;2.30;;
39896;SDS011;25567;48.276;14.242;2022-09-20T19:09:09;6.00;;;2.38;;
39896;SDS011;25567;48.276;14.242;2022-09-20T19:11:47;4.07;;;2.25;;
39896;SDS011;25567;48.276;14.242;2022-09-20T19:14:22;6.55;;;3.00;;
39896;SDS011;25567;48.276;14.242;2022-09-20T19:16:52;7.20;;;3.67;;
39896;SDS011;25567;48.276;14.242;2022-09-20T19:19:35;4.22;;;2.42;;
39896;SDS011;25567;48.276;14.242;2022-09-20T19:22:14;2.35;;;1.67;;
39896;SDS011;25567;48.276;14.242;2022-09-20T19:27:42;3.15;;;1.48;;
39896;SDS011;25567;48.276;14.242;2022-09-20T19:30:11;3.80;;;1.80;;
39896;SDS011;25567;48.276;14.242;2022-09-20T19:32:39;3.20;;;1.70;;
39896;SDS011;25567;48.276;14.242;2022-09-20T19:35:21;4.85;;;1.00;;
39896;SDS011;25567;48.276;14.242;2022-09-20T19:37:56;1.70;;;0.90;;
39896;SDS011;25567;48.276;14.242;2022-09-20T19:40:34;6.22;;;1.00;;
39896;SDS011;25567;48.276;14.242;2022-09-20T19:48:40;1.85;;;1.10;;
39896;SDS011;25567;48.276;14.242;2022-09-20T19:51:14;1.30;;;0.70;;
39896;SDS011;25567;48.276;14.242;2022-09-20T19:53:42;2.40;;;1.20;;
39896;SDS011;25567;48.276;14.242;2022-09-20T19:58:53;1.45;;;1.02;;
39896;SDS011;25567;48.276;14.242;2022-09-20T20:01:22;5.13;;;1.27;;
39896;SDS011;25567;48.276;14.242;2022-09-20T20:03:50;3.72;;;1.58;;
39896;SDS011;25567;48.276;14.242;2022-09-20T20:20:00;3.28;;;1.85;;
39896;SDS011;25567;48.276;14.242;2022-09-20T20:22:36;4.07;;;1.63;;
39896;SDS011;25567;48.276;14.242;2022-09-20T20:25:19;6.15;;;1.80;;
39896;SDS011;25567;48.276;14.242;2022-09-20T20:27:51;6.07;;;1.85;;
39896;SDS011;25567;48.276;14.242;2022-09-20T20:30:18;7.15;;;2.28;;
39896;SDS011;25567;48.276;14.242;2022-09-20T20:32:45;3.75;;;1.95;;
39896;SDS011;25567;48.276;14.242;2022-09-20T20:35:12;5.88;;;2.00;;
39896;SDS011;25567;48.276;14.242;2022-09-20T20:37:40;6.15;;;2.40;;
39896;SDS011;25567;48.276;14.242;2022-09-20T20:40:07;3.95;;;2.25;;